sensor_id;sensor_type;location;lat;lon;timestamp;P1;durP1;ratioP1;P2;durP2;ratioP2
69256;SDS011;56376;53.356;-1.748;2023-03-02T00:00:41;6.13;;;2.83;;
69256;SDS011;56376;53.356;-1.748;2023-03-02T00:03:08;4.77;;;2.10;;
69256;SDS011;56376;53.356;-1.748;2023-03-02T00:05:34;4.57;;;1.90;;
69256;SDS011;56376;53.356;-1.748;2023-03-02T00:08:02;2.57;;;2.00;;
69256;SDS011;56376;53.356;-1.748;2023-03-02T00:10:28;3.90;;;2.27;;
69256;SDS011;56376;53.356;-1.748;2023-03-02T00:12:53;4.87;;;2.50;;
69256;SDS011;56376;53.356;-1.748;2023-03-02T00:15:19;6.23;;;2.77;;
69256;SDS011;56376;53.356;-1.748;2023-03-02T00:17:44;3.27;;;2.40;;
69256;SDS011;56376;53.356;-1.748;2023-03-02T00:20:10;3.67;;;2.40;;
69256;SDS011;56376;53.356;-1.748;2023-03-02T00:22:40;5.10;;;2.80;;
69256;SDS011;56376;53.356;-1.748;2023-03-02T00:25:07;5.80;;;3.30;;
69256;SDS011;56376;53.356;-1.748;2023-03-02T00:27:33;4.77;;;2.73;;
69256;SDS011;56376;53.356;-1.748;2023-03-02T00:29:59;4.73;;;2.87;;
69256;SDS011;56376;53.356;-1.748;2023-03-02T00:32:24;5.30;;;2.90;;
69256;SDS011;56376;53.356;-1.748;2023-03-02T00:34:50;4.60;;;2.97;;
69256;SDS011;56376;53.356;-1.748;2023-03-02T00:37:15;8.73;;;3.80;;
69256;SDS011;56376;53.356;-1.748;2023-03-02T00:39:41;6.90;;;4.27;;
69256;SDS011;56376;53.356;-1.748;2023-03-02T00:42:07;12.30;;;5.10;;
69256;SDS011;56376;53.356;-1.748;2023-03-02T00:44:32;6.40;;;4.00;;
69256;SDS011;56376;53.356;-1.748;2023-03-02T00:46:58;8.73;;;4.10;;
69256;SDS011;56376;53.356;-1.748;2023-03-02T00:49:23;4.77;;;3.47;;
69256;SDS011;56376;53.356;-1.748;2023-03-02T00:51:49;6.60;;;3.93;;
69256;SDS011;56376;53.356;-1.748;2023-03-02T00:54:14;6.10;;;4.40;;
69256;SDS011;56376;53.356;-1.748;2023-03-02T00:56:40;7.43;;;4.50;;
69256;SDS011;56376;53.356;-1.748;2023-03-02T00:59:06;4.90;;;4.03;;
69256;SDS011;56376;53.356;-1.748;2023-03-02T01:01:50;5.50;;;4.43;;
69256;SDS011;56376;53.356;-1.748;2023-03-02T01:04:35;7.70;;;5.67;;
69256;SDS011;56376;53.356;-1.748;2023-03-02T01:07:04;12.80;;;7.00;;
69256;SDS011;56376;53.356;-1.748;2023-03-02T01:09:34;6.73;;;5.60;;
69256;SDS011;56376;53.356;-1.748;2023-03-02T01:12:00;9.93;;;6.60;;
69256;SDS011;56376;53.356;-1.748;2023-03-02T01:14:26;8.63;;;5.60;;
69256;SDS011;56376;53.356;-1.748;2023-03-02T01:16:51;8.87;;;5.77;;
69256;SDS011;56376;53.356;-1.748;2023-03-02T01:19:17;13.97;;;8.07;;
69256;SDS011;56376;53.356;-1.748;2023-03-02T01:21:43;10.13;;;6.93;;
69256;SDS011;56376;53.356;-1.748;2023-03-02T01:24:08;10.63;;;6.27;;
69256;SDS011;56376;53.356;-1.748;2023-03-02T01:26:35;6.53;;;5.33;;
69256;SDS011;56376;53.356;-1.748;2023-03-02T01:29:00;11.73;;;7.17;;
69256;SDS011;56376;53.356;-1.748;2023-03-02T01:31:26;13.23;;;6.80;;
69256;SDS011;56376;53.356;-1.748;2023-03-02T01:33:52;13.57;;;7.37;;
69256;SDS011;56376;53.356;-1.748;2023-03-02T01:36:18;9.30;;;5.27;;
69256;SDS011;56376;53.356;-1.748;2023-03-02T01:38:44;10.70;;;5.43;;
69256;SDS011;56376;53.356;-1.748;2023-03-02T01:41:10;8.57;;;5.00;;
69256;SDS011;56376;53.356;-1.748;2023-03-02T01:43:35;9.27;;;6.17;;
69256;SDS011;56376;53.356;-1.748;2023-03-02T01:46:14;9.00;;;5.47;;
69256;SDS011;56376;53.356;-1.748;2023-03-02T01:51:28;7.10;;;5.03;;
69256;SDS011;56376;53.356;-1.748;2023-03-02T01:54:03;11.70;;;5.43;;
69256;SDS011;56376;53.356;-1.748;2023-03-02T01:56:33;5.90;;;4.07;;
69256;SDS011;56376;53.356;-1.748;2023-03-02T01:59:08;6.17;;;4.70;;
69256;SDS011;56376;53.356;-1.748;2023-03-02T02:01:39;6.70;;;4.80;;
69256;SDS011;56376;53.356;-1.748;2023-03-02T02:04:06;8.60;;;5.13;;
69256;SDS011;56376;53.356;-1.748;2023-03-02T02:09:04;9.77;;;5.97;;
69256;SDS011;56376;53.356;-1.748;2023-03-02T02:11:32;6.77;;;5.20;;
69256;SDS011;56376;53.356;-1.748;2023-03-02T02:13:58;8.00;;;5.03;;
69256;SDS011;56376;53.356;-1.748;2023-03-02T02:16:26;6.17;;;5.27;;
69256;SDS011;56376;53.356;-1.748;2023-03-02T02:18:52;8.47;;;4.67;;
69256;SDS011;56376;53.356;-1.748;2023-03-02T02:21:20;7.63;;;4.70;;
69256;SDS011;56376;53.356;-1.748;2023-03-02T02:26:54;8.07;;;4.60;;
69256;SDS011;56376;53.356;-1.748;2023-03-02T02:29:25;9.00;;;4.73;;
69256;SDS011;56376;53.356;-1.748;2023-03-02T02:31:59;6.87;;;4.17;;
69256;SDS011;56376;53.356;-1.748;2023-03-02T02:37:06;7.07;;;4.00;;
69256;SDS011;56376;53.356;-1.748;2023-03-02T02:39:38;8.00;;;4.00;;
69256;SDS011;56376;53.356;-1.748;2023-03-02T02:42:10;13.07;;;5.87;;
69256;SDS011;56376;53.356;-1.748;2023-03-02T02:44:39;9.40;;;5.00;;
69256;SDS011;56376;53.356;-1.748;2023-03-02T02:47:11;6.43;;;4.20;;
69256;SDS011;56376;53.356;-1.748;2023-03-02T02:49:41;5.03;;;3.90;;
69256;SDS011;56376;53.356;-1.748;2023-03-02T02:52:06;6.03;;;3.97;;
69256;SDS011;56376;53.356;-1.748;2023-03-02T02:54:37;5.80;;;4.33;;
69256;SDS011;56376;53.356;-1.748;2023-03-02T02:57:03;6.50;;;4.00;;
69256;SDS011;56376;53.356;-1.748;2023-03-02T02:59:34;7.37;;;3.97;;
69256;SDS011;56376;53.356;-1.748;2023-03-02T03:02:03;3.67;;;3.13;;
69256;SDS011;56376;53.356;-1.748;2023-03-02T03:04:30;9.50;;;5.03;;
69256;SDS011;56376;53.356;-1.748;2023-03-02T03:06:59;5.60;;;4.00;;
69256;SDS011;56376;53.356;-1.748;2023-03-02T03:09:29;5.20;;;3.50;;
69256;SDS011;56376;53.356;-1.748;2023-03-02T03:12:00;6.80;;;3.37;;
69256;SDS011;56376;53.356;-1.748;2023-03-02T03:14:38;3.40;;;3.10;;
69256;SDS011;56376;53.356;-1.748;2023-03-02T03:17:05;3.43;;;3.10;;
69256;SDS011;56376;53.356;-1.748;2023-03-02T03:19:36;4.87;;;3.10;;
69256;SDS011;56376;53.356;-1.748;2023-03-02T03:22:02;4.67;;;3.50;;
69256;SDS011;56376;53.356;-1.748;2023-03-02T03:24:28;6.40;;;3.60;;
69256;SDS011;56376;53.356;-1.748;2023-03-02T03:26:56;4.17;;;3.37;;
69256;SDS011;56376;53.356;-1.748;2023-03-02T03:29:22;5.27;;;3.73;;
69256;SDS011;56376;53.356;-1.748;2023-03-02T03:31:53;5.73;;;4.27;;
69256;SDS011;56376;53.356;-1.748;2023-03-02T03:34:21;12.57;;;6.73;;
69256;SDS011;56376;53.356;-1.748;2023-03-02T03:36:47;9.80;;;7.13;;
69256;SDS011;56376;53.356;-1.748;2023-03-02T03:39:13;9.70;;;5.93;;
69256;SDS011;56376;53.356;-1.748;2023-03-02T03:41:38;11.40;;;6.27;;
69256;SDS011;56376;53.356;-1.748;2023-03-02T03:44:04;8.70;;;6.67;;
69256;SDS011;56376;53.356;-1.748;2023-03-02T03:46:29;9.30;;;6.77;;
69256;SDS011;56376;53.356;-1.748;2023-03-02T03:48:55;11.17;;;6.30;;
69256;SDS011;56376;53.356;-1.748;2023-03-02T03:51:21;8.70;;;6.67;;
69256;SDS011;56376;53.356;-1.748;2023-03-02T03:53:47;7.43;;;6.40;;
69256;SDS011;56376;53.356;-1.748;2023-03-02T03:56:23;11.47;;;6.10;;
69256;SDS011;56376;53.356;-1.748;2023-03-02T03:58:57;10.82;;;7.05;;
69256;SDS011;56376;53.356;-1.748;2023-03-02T04:03:59;9.73;;;7.23;;
69256;SDS011;56376;53.356;-1.748;2023-03-02T04:06:25;11.13;;;7.43;;
69256;SDS011;56376;53.356;-1.748;2023-03-02T04:08:51;9.50;;;6.60;;
69256;SDS011;56376;53.356;-1.748;2023-03-02T04:11:16;9.80;;;7.53;;
69256;SDS011;56376;53.356;-1.748;2023-03-02T04:13:41;9.80;;;7.10;;
69256;SDS011;56376;53.356;-1.748;2023-03-02T04:16:07;10.83;;;7.30;;
69256;SDS011;56376;53.356;-1.748;2023-03-02T04:18:32;11.50;;;8.20;;
69256;SDS011;56376;53.356;-1.748;2023-03-02T04:20:57;12.77;;;8.60;;
69256;SDS011;56376;53.356;-1.748;2023-03-02T04:23:23;10.60;;;8.17;;
69256;SDS011;56376;53.356;-1.748;2023-03-02T04:25:48;9.93;;;7.10;;
69256;SDS011;56376;53.356;-1.748;2023-03-02T04:28:14;9.50;;;7.63;;
69256;SDS011;56376;53.356;-1.748;2023-03-02T04:30:41;10.67;;;7.17;;
69256;SDS011;56376;53.356;-1.748;2023-03-02T04:33:07;8.43;;;7.40;;
69256;SDS011;56376;53.356;-1.748;2023-03-02T04:35:32;9.83;;;7.10;;
69256;SDS011;56376;53.356;-1.748;2023-03-02T04:37:58;7.60;;;6.87;;
69256;SDS011;56376;53.356;-1.748;2023-03-02T04:40:23;8.57;;;6.70;;
69256;SDS011;56376;53.356;-1.748;2023-03-02T04:42:49;9.80;;;6.60;;
69256;SDS011;56376;53.356;-1.748;2023-03-02T04:45:14;9.30;;;7.20;;
69256;SDS011;56376;53.356;-1.748;2023-03-02T04:47:41;8.30;;;6.77;;
69256;SDS011;56376;53.356;-1.748;2023-03-02T04:50:07;7.83;;;6.70;;
69256;SDS011;56376;53.356;-1.748;2023-03-02T04:52:34;8.80;;;6.33;;
69256;SDS011;56376;53.356;-1.748;2023-03-02T04:55:00;8.33;;;6.43;;
69256;SDS011;56376;53.356;-1.748;2023-03-02T04:57:25;8.67;;;6.20;;
69256;SDS011;56376;53.356;-1.748;2023-03-02T04:59:50;7.63;;;6.67;;
69256;SDS011;56376;53.356;-1.748;2023-03-02T05:02:16;10.00;;;7.13;;
69256;SDS011;56376;53.356;-1.748;2023-03-02T05:04:41;9.83;;;6.67;;
69256;SDS011;56376;53.356;-1.748;2023-03-02T05:07:07;11.00;;;7.80;;
69256;SDS011;56376;53.356;-1.748;2023-03-02T05:09:32;12.83;;;7.97;;
69256;SDS011;56376;53.356;-1.748;2023-03-02T05:11:58;9.57;;;8.40;;
69256;SDS011;56376;53.356;-1.748;2023-03-02T05:14:25;11.07;;;9.03;;
69256;SDS011;56376;53.356;-1.748;2023-03-02T05:16:51;13.77;;;8.90;;
69256;SDS011;56376;53.356;-1.748;2023-03-02T05:19:17;12.13;;;9.00;;
69256;SDS011;56376;53.356;-1.748;2023-03-02T05:21:43;10.40;;;8.83;;
69256;SDS011;56376;53.356;-1.748;2023-03-02T05:24:09;9.20;;;8.30;;
69256;SDS011;56376;53.356;-1.748;2023-03-02T05:26:35;9.13;;;7.97;;
69256;SDS011;56376;53.356;-1.748;2023-03-02T05:29:00;10.80;;;8.53;;
69256;SDS011;56376;53.356;-1.748;2023-03-02T05:34:00;9.50;;;8.00;;
69256;SDS011;56376;53.356;-1.748;2023-03-02T05:36:26;8.83;;;7.23;;
69256;SDS011;56376;53.356;-1.748;2023-03-02T05:38:52;8.63;;;7.60;;
69256;SDS011;56376;53.356;-1.748;2023-03-02T05:41:17;9.37;;;7.77;;
69256;SDS011;56376;53.356;-1.748;2023-03-02T05:43:43;9.73;;;7.43;;
69256;SDS011;56376;53.356;-1.748;2023-03-02T05:46:08;8.63;;;7.47;;
69256;SDS011;56376;53.356;-1.748;2023-03-02T05:48:34;8.77;;;7.17;;
69256;SDS011;56376;53.356;-1.748;2023-03-02T05:51:00;8.43;;;7.57;;
69256;SDS011;56376;53.356;-1.748;2023-03-02T05:53:25;9.63;;;8.07;;
69256;SDS011;56376;53.356;-1.748;2023-03-02T05:55:51;12.77;;;9.50;;
69256;SDS011;56376;53.356;-1.748;2023-03-02T05:58:17;11.30;;;8.57;;
69256;SDS011;56376;53.356;-1.748;2023-03-02T06:00:44;12.17;;;9.67;;
69256;SDS011;56376;53.356;-1.748;2023-03-02T06:03:10;10.53;;;9.07;;
69256;SDS011;56376;53.356;-1.748;2023-03-02T06:05:35;12.03;;;8.87;;
69256;SDS011;56376;53.356;-1.748;2023-03-02T06:08:02;9.87;;;8.17;;
69256;SDS011;56376;53.356;-1.748;2023-03-02T06:10:28;10.93;;;8.60;;
69256;SDS011;56376;53.356;-1.748;2023-03-02T06:12:54;12.93;;;10.40;;
69256;SDS011;56376;53.356;-1.748;2023-03-02T06:15:19;10.50;;;8.33;;
69256;SDS011;56376;53.356;-1.748;2023-03-02T06:17:45;12.20;;;9.67;;
69256;SDS011;56376;53.356;-1.748;2023-03-02T06:20:11;10.83;;;9.00;;
69256;SDS011;56376;53.356;-1.748;2023-03-02T06:22:41;10.00;;;8.73;;
69256;SDS011;56376;53.356;-1.748;2023-03-02T06:25:09;12.80;;;8.40;;
69256;SDS011;56376;53.356;-1.748;2023-03-02T06:27:37;12.00;;;9.53;;
69256;SDS011;56376;53.356;-1.748;2023-03-02T06:30:03;12.47;;;8.20;;
69256;SDS011;56376;53.356;-1.748;2023-03-02T06:32:30;11.87;;;7.87;;
69256;SDS011;56376;53.356;-1.748;2023-03-02T06:34:58;10.33;;;8.17;;
69256;SDS011;56376;53.356;-1.748;2023-03-02T06:37:25;11.77;;;7.80;;
69256;SDS011;56376;53.356;-1.748;2023-03-02T06:39:52;9.23;;;6.77;;
69256;SDS011;56376;53.356;-1.748;2023-03-02T06:42:18;9.77;;;7.00;;
69256;SDS011;56376;53.356;-1.748;2023-03-02T06:44:43;6.00;;;5.23;;
69256;SDS011;56376;53.356;-1.748;2023-03-02T06:47:09;6.23;;;4.97;;
69256;SDS011;56376;53.356;-1.748;2023-03-02T06:49:34;7.27;;;5.00;;
69256;SDS011;56376;53.356;-1.748;2023-03-02T06:51:59;7.37;;;5.63;;
69256;SDS011;56376;53.356;-1.748;2023-03-02T06:54:25;6.00;;;4.80;;
69256;SDS011;56376;53.356;-1.748;2023-03-02T06:56:50;5.57;;;4.37;;
69256;SDS011;56376;53.356;-1.748;2023-03-02T06:59:15;6.30;;;4.27;;
69256;SDS011;56376;53.356;-1.748;2023-03-02T07:01:41;8.07;;;4.60;;
69256;SDS011;56376;53.356;-1.748;2023-03-02T07:04:06;6.87;;;4.43;;
69256;SDS011;56376;53.356;-1.748;2023-03-02T07:06:31;8.70;;;5.23;;
69256;SDS011;56376;53.356;-1.748;2023-03-02T07:08:57;5.93;;;4.23;;
69256;SDS011;56376;53.356;-1.748;2023-03-02T07:11:22;5.07;;;4.20;;
69256;SDS011;56376;53.356;-1.748;2023-03-02T07:13:47;6.33;;;5.00;;
69256;SDS011;56376;53.356;-1.748;2023-03-02T07:16:14;6.93;;;4.90;;
69256;SDS011;56376;53.356;-1.748;2023-03-02T07:18:40;8.50;;;6.00;;
69256;SDS011;56376;53.356;-1.748;2023-03-02T07:21:05;6.60;;;5.37;;
69256;SDS011;56376;53.356;-1.748;2023-03-02T07:23:31;9.83;;;5.23;;
69256;SDS011;56376;53.356;-1.748;2023-03-02T07:25:57;6.57;;;5.33;;
69256;SDS011;56376;53.356;-1.748;2023-03-02T07:28:23;6.33;;;4.90;;
69256;SDS011;56376;53.356;-1.748;2023-03-02T07:30:49;6.33;;;4.33;;
69256;SDS011;56376;53.356;-1.748;2023-03-02T07:33:16;6.23;;;4.67;;
69256;SDS011;56376;53.356;-1.748;2023-03-02T07:35:42;9.17;;;7.10;;
69256;SDS011;56376;53.356;-1.748;2023-03-02T07:38:07;10.93;;;7.23;;
69256;SDS011;56376;53.356;-1.748;2023-03-02T07:40:33;8.00;;;7.20;;
69256;SDS011;56376;53.356;-1.748;2023-03-02T07:42:58;7.70;;;6.50;;
69256;SDS011;56376;53.356;-1.748;2023-03-02T07:45:24;10.90;;;8.60;;
69256;SDS011;56376;53.356;-1.748;2023-03-02T07:47:50;10.53;;;8.40;;
69256;SDS011;56376;53.356;-1.748;2023-03-02T07:50:15;8.77;;;7.83;;
69256;SDS011;56376;53.356;-1.748;2023-03-02T07:52:41;9.53;;;8.50;;
69256;SDS011;56376;53.356;-1.748;2023-03-02T07:55:06;9.93;;;8.87;;
69256;SDS011;56376;53.356;-1.748;2023-03-02T07:57:35;10.53;;;9.40;;
69256;SDS011;56376;53.356;-1.748;2023-03-02T08:00:00;10.47;;;8.50;;
69256;SDS011;56376;53.356;-1.748;2023-03-02T08:02:26;12.20;;;9.80;;
69256;SDS011;56376;53.356;-1.748;2023-03-02T08:04:52;9.93;;;8.93;;
69256;SDS011;56376;53.356;-1.748;2023-03-02T08:07:17;9.53;;;7.50;;
69256;SDS011;56376;53.356;-1.748;2023-03-02T08:09:43;9.40;;;8.10;;
69256;SDS011;56376;53.356;-1.748;2023-03-02T08:12:08;7.93;;;7.13;;
69256;SDS011;56376;53.356;-1.748;2023-03-02T08:14:34;7.60;;;6.80;;
69256;SDS011;56376;53.356;-1.748;2023-03-02T08:17:00;6.73;;;6.13;;
69256;SDS011;56376;53.356;-1.748;2023-03-02T08:19:26;6.73;;;5.33;;
69256;SDS011;56376;53.356;-1.748;2023-03-02T08:21:51;6.23;;;5.33;;
69256;SDS011;56376;53.356;-1.748;2023-03-02T08:24:17;5.87;;;5.20;;
69256;SDS011;56376;53.356;-1.748;2023-03-02T08:26:43;6.20;;;5.40;;
69256;SDS011;56376;53.356;-1.748;2023-03-02T08:29:08;5.93;;;5.00;;
69256;SDS011;56376;53.356;-1.748;2023-03-02T08:31:33;5.40;;;4.53;;
69256;SDS011;56376;53.356;-1.748;2023-03-02T08:33:59;4.93;;;4.20;;
69256;SDS011;56376;53.356;-1.748;2023-03-02T08:36:25;5.33;;;4.17;;
69256;SDS011;56376;53.356;-1.748;2023-03-02T08:38:50;4.93;;;4.43;;
69256;SDS011;56376;53.356;-1.748;2023-03-02T08:41:17;5.10;;;4.40;;
69256;SDS011;56376;53.356;-1.748;2023-03-02T08:43:45;5.27;;;4.77;;
69256;SDS011;56376;53.356;-1.748;2023-03-02T08:46:11;5.83;;;5.23;;
69256;SDS011;56376;53.356;-1.748;2023-03-02T08:48:39;7.43;;;5.07;;
69256;SDS011;56376;53.356;-1.748;2023-03-02T08:51:07;6.10;;;5.30;;
69256;SDS011;56376;53.356;-1.748;2023-03-02T08:53:38;6.03;;;5.17;;
69256;SDS011;56376;53.356;-1.748;2023-03-02T08:56:13;6.67;;;4.73;;
69256;SDS011;56376;53.356;-1.748;2023-03-02T08:58:40;6.03;;;4.83;;
69256;SDS011;56376;53.356;-1.748;2023-03-02T09:01:11;5.07;;;4.57;;
69256;SDS011;56376;53.356;-1.748;2023-03-02T09:03:41;6.07;;;5.03;;
69256;SDS011;56376;53.356;-1.748;2023-03-02T09:06:06;5.23;;;4.40;;
69256;SDS011;56376;53.356;-1.748;2023-03-02T09:08:31;5.77;;;4.43;;
69256;SDS011;56376;53.356;-1.748;2023-03-02T09:10:57;5.27;;;4.77;;
69256;SDS011;56376;53.356;-1.748;2023-03-02T09:13:22;5.20;;;4.20;;
69256;SDS011;56376;53.356;-1.748;2023-03-02T09:15:48;6.47;;;4.70;;
69256;SDS011;56376;53.356;-1.748;2023-03-02T09:18:13;5.63;;;4.80;;
69256;SDS011;56376;53.356;-1.748;2023-03-02T09:20:38;4.20;;;3.80;;
69256;SDS011;56376;53.356;-1.748;2023-03-02T09:23:04;6.90;;;4.63;;
69256;SDS011;56376;53.356;-1.748;2023-03-02T09:25:29;5.63;;;4.50;;
69256;SDS011;56376;53.356;-1.748;2023-03-02T09:27:54;5.33;;;4.57;;
69256;SDS011;56376;53.356;-1.748;2023-03-02T09:30:20;4.33;;;3.80;;
69256;SDS011;56376;53.356;-1.748;2023-03-02T09:32:45;7.33;;;5.07;;
69256;SDS011;56376;53.356;-1.748;2023-03-02T09:35:12;12.50;;;6.10;;
69256;SDS011;56376;53.356;-1.748;2023-03-02T09:37:38;10.37;;;5.40;;
69256;SDS011;56376;53.356;-1.748;2023-03-02T09:40:04;9.50;;;5.00;;
69256;SDS011;56376;53.356;-1.748;2023-03-02T09:42:41;17.07;;;7.90;;
69256;SDS011;56376;53.356;-1.748;2023-03-02T09:51:00;5.70;;;4.97;;
69256;SDS011;56376;53.356;-1.748;2023-03-02T09:54:05;6.23;;;4.57;;
69256;SDS011;56376;53.356;-1.748;2023-03-02T09:56:35;5.50;;;4.10;;
69256;SDS011;56376;53.356;-1.748;2023-03-02T09:59:20;4.77;;;3.97;;
69256;SDS011;56376;53.356;-1.748;2023-03-02T10:01:58;4.90;;;4.40;;
69256;SDS011;56376;53.356;-1.748;2023-03-02T10:04:40;5.70;;;5.10;;
69256;SDS011;56376;53.356;-1.748;2023-03-02T10:07:19;6.20;;;5.57;;
69256;SDS011;56376;53.356;-1.748;2023-03-02T10:09:50;6.40;;;5.80;;
69256;SDS011;56376;53.356;-1.748;2023-03-02T10:15:23;8.20;;;6.67;;
69256;SDS011;56376;53.356;-1.748;2023-03-02T10:20:27;8.70;;;7.90;;
69256;SDS011;56376;53.356;-1.748;2023-03-02T10:22:59;7.80;;;7.03;;
69256;SDS011;56376;53.356;-1.748;2023-03-02T10:25:47;8.27;;;6.87;;
69256;SDS011;56376;53.356;-1.748;2023-03-02T10:30:51;7.50;;;6.80;;
69256;SDS011;56376;53.356;-1.748;2023-03-02T10:33:23;8.53;;;7.73;;
69256;SDS011;56376;53.356;-1.748;2023-03-02T10:35:51;7.87;;;7.07;;
69256;SDS011;56376;53.356;-1.748;2023-03-02T10:38:19;8.80;;;7.13;;
69256;SDS011;56376;53.356;-1.748;2023-03-02T10:40:48;9.93;;;8.67;;
69256;SDS011;56376;53.356;-1.748;2023-03-02T10:43:41;10.18;;;9.15;;
69256;SDS011;56376;53.356;-1.748;2023-03-02T10:46:10;9.77;;;8.87;;
69256;SDS011;56376;53.356;-1.748;2023-03-02T10:51:34;10.67;;;9.60;;
69256;SDS011;56376;53.356;-1.748;2023-03-02T10:54:02;10.37;;;8.70;;
69256;SDS011;56376;53.356;-1.748;2023-03-02T10:56:28;12.43;;;11.03;;
69256;SDS011;56376;53.356;-1.748;2023-03-02T10:58:54;21.83;;;13.13;;
69256;SDS011;56376;53.356;-1.748;2023-03-02T11:01:27;16.67;;;11.33;;
69256;SDS011;56376;53.356;-1.748;2023-03-02T11:03:56;10.83;;;8.60;;
69256;SDS011;56376;53.356;-1.748;2023-03-02T11:06:23;9.93;;;7.93;;
69256;SDS011;56376;53.356;-1.748;2023-03-02T11:08:58;9.80;;;8.80;;
69256;SDS011;56376;53.356;-1.748;2023-03-02T11:11:32;7.90;;;7.20;;
69256;SDS011;56376;53.356;-1.748;2023-03-02T11:14:08;8.33;;;7.53;;
69256;SDS011;56376;53.356;-1.748;2023-03-02T11:16:38;9.23;;;8.33;;
69256;SDS011;56376;53.356;-1.748;2023-03-02T11:19:06;8.37;;;7.67;;
69256;SDS011;56376;53.356;-1.748;2023-03-02T11:21:38;8.10;;;7.40;;
69256;SDS011;56376;53.356;-1.748;2023-03-02T11:24:18;8.63;;;7.00;;
69256;SDS011;56376;53.356;-1.748;2023-03-02T11:26:53;8.00;;;7.30;;
69256;SDS011;56376;53.356;-1.748;2023-03-02T11:31:55;9.63;;;8.73;;
69256;SDS011;56376;53.356;-1.748;2023-03-02T11:42:17;9.77;;;8.77;;
69256;SDS011;56376;53.356;-1.748;2023-03-02T11:45:13;9.50;;;8.57;;
69256;SDS011;56376;53.356;-1.748;2023-03-02T11:48:01;8.90;;;8.10;;
69256;SDS011;56376;53.356;-1.748;2023-03-02T11:50:27;8.93;;;8.07;;
69256;SDS011;56376;53.356;-1.748;2023-03-02T11:52:56;9.03;;;8.13;;
69256;SDS011;56376;53.356;-1.748;2023-03-02T11:55:27;9.07;;;7.77;;
69256;SDS011;56376;53.356;-1.748;2023-03-02T11:57:58;7.53;;;6.93;;
69256;SDS011;56376;53.356;-1.748;2023-03-02T12:03:06;13.67;;;9.17;;
69256;SDS011;56376;53.356;-1.748;2023-03-02T12:05:58;14.05;;;8.50;;
69256;SDS011;56376;53.356;-1.748;2023-03-02T12:08:34;11.50;;;7.60;;
69256;SDS011;56376;53.356;-1.748;2023-03-02T12:11:07;9.93;;;7.47;;
69256;SDS011;56376;53.356;-1.748;2023-03-02T12:16:43;8.83;;;7.17;;
69256;SDS011;56376;53.356;-1.748;2023-03-02T12:19:24;11.03;;;9.40;;
69256;SDS011;56376;53.356;-1.748;2023-03-02T12:24:29;9.83;;;7.97;;
69256;SDS011;56376;53.356;-1.748;2023-03-02T12:27:03;12.10;;;8.37;;
69256;SDS011;56376;53.356;-1.748;2023-03-02T12:29:48;10.27;;;7.83;;
69256;SDS011;56376;53.356;-1.748;2023-03-02T12:32:29;16.07;;;10.03;;
69256;SDS011;56376;53.356;-1.748;2023-03-02T12:34:57;11.33;;;8.87;;
69256;SDS011;56376;53.356;-1.748;2023-03-02T12:37:28;11.03;;;8.43;;
69256;SDS011;56376;53.356;-1.748;2023-03-02T12:45:50;9.03;;;8.20;;
69256;SDS011;56376;53.356;-1.748;2023-03-02T12:48:44;9.17;;;8.23;;
69256;SDS011;56376;53.356;-1.748;2023-03-02T12:51:17;8.80;;;8.00;;
69256;SDS011;56376;53.356;-1.748;2023-03-02T12:53:46;9.67;;;8.87;;
69256;SDS011;56376;53.356;-1.748;2023-03-02T12:56:25;8.97;;;8.20;;
69256;SDS011;56376;53.356;-1.748;2023-03-02T12:58:51;9.17;;;8.27;;
69256;SDS011;56376;53.356;-1.748;2023-03-02T13:01:23;9.37;;;8.53;;
69256;SDS011;56376;53.356;-1.748;2023-03-02T13:03:51;12.13;;;10.93;;
69256;SDS011;56376;53.356;-1.748;2023-03-02T13:06:17;15.30;;;12.33;;
69256;SDS011;56376;53.356;-1.748;2023-03-02T13:08:45;14.23;;;11.73;;
69256;SDS011;56376;53.356;-1.748;2023-03-02T13:11:12;9.30;;;8.40;;
69256;SDS011;56376;53.356;-1.748;2023-03-02T13:16:20;9.23;;;8.33;;
69256;SDS011;56376;53.356;-1.748;2023-03-02T13:18:49;7.30;;;6.60;;
69256;SDS011;56376;53.356;-1.748;2023-03-02T13:21:20;8.63;;;7.83;;
69256;SDS011;56376;53.356;-1.748;2023-03-02T13:23:56;8.57;;;7.83;;
69256;SDS011;56376;53.356;-1.748;2023-03-02T13:26:32;8.13;;;7.43;;
69256;SDS011;56376;53.356;-1.748;2023-03-02T13:29:00;9.00;;;8.10;;
69256;SDS011;56376;53.356;-1.748;2023-03-02T13:31:26;8.40;;;7.70;;
69256;SDS011;56376;53.356;-1.748;2023-03-02T13:33:52;9.40;;;8.70;;
69256;SDS011;56376;53.356;-1.748;2023-03-02T13:36:23;10.83;;;9.67;;
69256;SDS011;56376;53.356;-1.748;2023-03-02T13:38:53;9.40;;;8.50;;
69256;SDS011;56376;53.356;-1.748;2023-03-02T13:41:26;10.73;;;9.70;;
69256;SDS011;56376;53.356;-1.748;2023-03-02T13:43:53;8.57;;;7.93;;
69256;SDS011;56376;53.356;-1.748;2023-03-02T13:48:58;7.80;;;7.10;;
69256;SDS011;56376;53.356;-1.748;2023-03-02T13:51:32;6.97;;;6.28;;
69256;SDS011;56376;53.356;-1.748;2023-03-02T13:54:05;6.93;;;6.33;;
69256;SDS011;56376;53.356;-1.748;2023-03-02T13:56:43;6.87;;;6.37;;
69256;SDS011;56376;53.356;-1.748;2023-03-02T13:59:12;6.10;;;5.50;;
69256;SDS011;56376;53.356;-1.748;2023-03-02T14:01:39;5.53;;;5.10;;
69256;SDS011;56376;53.356;-1.748;2023-03-02T14:04:05;5.37;;;4.87;;
69256;SDS011;56376;53.356;-1.748;2023-03-02T14:06:35;5.87;;;5.13;;
69256;SDS011;56376;53.356;-1.748;2023-03-02T14:09:00;5.27;;;4.77;;
69256;SDS011;56376;53.356;-1.748;2023-03-02T14:11:26;5.20;;;4.80;;
69256;SDS011;56376;53.356;-1.748;2023-03-02T14:13:59;5.13;;;4.63;;
69256;SDS011;56376;53.356;-1.748;2023-03-02T14:16:27;4.10;;;3.77;;
69256;SDS011;56376;53.356;-1.748;2023-03-02T14:18:53;4.47;;;4.07;;
69256;SDS011;56376;53.356;-1.748;2023-03-02T14:21:21;4.47;;;4.07;;
69256;SDS011;56376;53.356;-1.748;2023-03-02T14:23:48;3.80;;;3.47;;
69256;SDS011;56376;53.356;-1.748;2023-03-02T14:28:42;4.77;;;4.20;;
69256;SDS011;56376;53.356;-1.748;2023-03-02T14:31:08;4.90;;;4.50;;
69256;SDS011;56376;53.356;-1.748;2023-03-02T14:33:34;4.87;;;4.37;;
69256;SDS011;56376;53.356;-1.748;2023-03-02T14:36:00;4.83;;;4.43;;
69256;SDS011;56376;53.356;-1.748;2023-03-02T14:38:27;4.57;;;4.10;;
69256;SDS011;56376;53.356;-1.748;2023-03-02T14:40:54;4.50;;;4.10;;
69256;SDS011;56376;53.356;-1.748;2023-03-02T14:43:20;4.10;;;3.80;;
69256;SDS011;56376;53.356;-1.748;2023-03-02T14:45:47;4.30;;;3.90;;
69256;SDS011;56376;53.356;-1.748;2023-03-02T14:48:13;4.43;;;3.80;;
69256;SDS011;56376;53.356;-1.748;2023-03-02T14:50:39;4.57;;;3.70;;
69256;SDS011;56376;53.356;-1.748;2023-03-02T14:53:11;5.10;;;4.70;;
69256;SDS011;56376;53.356;-1.748;2023-03-02T14:55:41;4.00;;;3.70;;
69256;SDS011;56376;53.356;-1.748;2023-03-02T14:58:14;5.03;;;4.53;;
69256;SDS011;56376;53.356;-1.748;2023-03-02T15:00:42;4.40;;;4.03;;
69256;SDS011;56376;53.356;-1.748;2023-03-02T15:03:12;4.13;;;3.73;;
69256;SDS011;56376;53.356;-1.748;2023-03-02T15:05:38;5.07;;;4.57;;
69256;SDS011;56376;53.356;-1.748;2023-03-02T15:08:04;4.53;;;4.13;;
69256;SDS011;56376;53.356;-1.748;2023-03-02T15:10:30;3.80;;;3.50;;
69256;SDS011;56376;53.356;-1.748;2023-03-02T15:12:55;5.40;;;4.90;;
69256;SDS011;56376;53.356;-1.748;2023-03-02T15:15:21;5.20;;;4.70;;
69256;SDS011;56376;53.356;-1.748;2023-03-02T15:17:48;4.47;;;4.07;;
69256;SDS011;56376;53.356;-1.748;2023-03-02T15:20:14;6.10;;;4.40;;
69256;SDS011;56376;53.356;-1.748;2023-03-02T15:22:40;4.97;;;4.47;;
69256;SDS011;56376;53.356;-1.748;2023-03-02T15:25:06;3.93;;;3.57;;
69256;SDS011;56376;53.356;-1.748;2023-03-02T15:27:31;3.73;;;3.17;;
69256;SDS011;56376;53.356;-1.748;2023-03-02T15:29:57;4.40;;;3.70;;
69256;SDS011;56376;53.356;-1.748;2023-03-02T15:32:22;4.40;;;4.00;;
69256;SDS011;56376;53.356;-1.748;2023-03-02T15:34:48;4.10;;;3.73;;
69256;SDS011;56376;53.356;-1.748;2023-03-02T15:37:13;3.80;;;3.40;;
69256;SDS011;56376;53.356;-1.748;2023-03-02T15:39:39;3.53;;;3.20;;
69256;SDS011;56376;53.356;-1.748;2023-03-02T15:42:05;4.00;;;3.60;;